sim
Sign-in with your pilot id or email,
or register
Callsign
Passwort

Schedule Details

Flight Number: RYR8582 (2)
Departure: London Stansted Airport (EGSS) at 17:35
Arrival: Thessaloniki International Airport (LGTS) at 20:45
Route: Ryanair Passenger Schedule. Enter filed route here before submitting Pirep.

Weather Information
Getting current METAR information for EGSS 211850Z AUTO 20008KT 9999 NCD 19/10 Q1025
Getting current METAR information for LGTS 211850Z 11004KT CAVOK 27/13 Q1017 NOSIG

Schedule Frequency

Route Map